createdAt,value
2022-12-06T03:26:10.122Z,101163.95
2022-12-06T03:27:15.040Z,101163.20
2022-12-06T03:28:17.187Z,101164.64
2022-12-06T03:29:20.669Z,101154.40
2022-12-06T03:30:22.856Z,101161.02
2022-12-06T03:31:25.362Z,101155.16
2022-12-06T03:32:30.590Z,101156.78
2022-12-06T03:33:33.023Z,101156.78
2022-12-06T03:34:38.416Z,101157.12
2022-12-06T03:35:41.238Z,101150.38
2022-12-06T03:36:44.995Z,101155.19
2022-12-06T03:37:51.417Z,101159.05
2022-12-06T03:38:55.572Z,101159.41
2022-12-06T03:40:08.425Z,101152.68
2022-12-06T03:41:10.558Z,101155.75
2022-12-06T03:42:12.664Z,101152.53
2022-12-06T03:43:14.764Z,101152.07
2022-12-06T03:44:17.459Z,101147.22
2022-12-06T03:45:20.173Z,101153.18
2022-12-06T03:47:58.692Z,101150.41
2022-12-06T03:50:25.028Z,101142.04
2022-12-06T03:51:30.195Z,101147.66
2022-12-06T03:52:33.397Z,101135.16
2022-12-06T03:53:38.418Z,101141.22
2022-12-06T03:54:41.971Z,101134.87
2022-12-06T03:55:44.481Z,101138.30
2022-12-06T03:56:46.663Z,101131.95
2022-12-06T03:57:48.786Z,101136.30
2022-12-06T03:58:50.872Z,101143.36
2022-12-06T04:00:07.497Z,101133.42
2022-12-06T04:01:11.924Z,101140.44
2022-12-06T04:02:14.434Z,101138.55
2022-12-06T04:03:17.936Z,101144.72
2022-12-06T04:04:20.317Z,101135.73
2022-12-06T04:05:22.549Z,101141.90
2022-12-06T04:06:25.022Z,101131.14
2022-12-06T04:07:27.008Z,101137.34
2022-12-06T04:08:29.089Z,101131.95
2022-12-06T04:09:31.204Z,101132.81
2022-12-06T04:10:33.435Z,101133.67
2022-12-06T04:11:35.969Z,101128.25
2022-12-06T04:12:38.838Z,101124.64
2022-12-06T04:13:41.896Z,101137.94
2022-12-06T04:14:44.146Z,101134.41
2022-12-06T04:15:46.790Z,101132.59
2022-12-06T04:16:49.752Z,101128.98
2022-12-06T04:17:52.183Z,101124.50
2022-12-06T04:18:54.771Z,101121.75
2022-12-06T04:19:57.217Z,101122.64
2022-12-06T04:21:02.854Z,101130.59
2022-12-06T04:22:05.027Z,101116.41
2022-12-06T04:23:07.475Z,101121.75
2022-12-06T04:24:09.593Z,101111.87
2022-12-06T04:25:12.097Z,101116.29
2022-12-06T04:26:17.603Z,101112.73
2022-12-06T04:27:20.948Z,101117.15
2022-12-06T04:28:23.078Z,101118.00
2022-12-06T04:29:25.175Z,101119.75
2022-12-06T04:30:27.709Z,101122.42
2022-12-06T04:31:30.846Z,101119.75
2022-12-06T04:32:33.274Z,101120.64
2022-12-06T04:33:35.324Z,101119.67
2022-12-06T04:34:37.452Z,101119.67
2022-12-06T04:35:39.504Z,101118.82
2022-12-06T04:36:42.655Z,101105.45
2022-12-06T04:37:45.454Z,101115.22
2022-12-06T04:38:48.058Z,101109.87
2022-12-06T04:39:51.031Z,101107.13
2022-12-06T04:40:53.226Z,101107.13
2022-12-06T04:41:58.389Z,101107.98
2022-12-06T04:43:00.561Z,101113.33
2022-12-06T04:44:04.811Z,101110.66
2022-12-06T04:45:08.425Z,101107.98
2022-12-06T04:46:12.245Z,101108.83
2022-12-06T04:47:15.497Z,101102.63
2022-12-06T04:48:17.854Z,101101.70
2022-12-06T04:49:20.560Z,101106.97
2022-12-06T04:50:22.831Z,101111.47
2022-12-06T04:51:25.171Z,101102.48
2022-12-06T04:52:34.056Z,101109.65
2022-12-06T04:53:32.524Z,101101.63
2022-12-06T04:54:34.921Z,101102.48
2022-12-06T04:55:37.002Z,101102.48
2022-12-06T04:56:39.072Z,101098.88
2022-12-06T04:57:41.239Z,101107.71
2022-12-06T04:58:43.884Z,101113.92
2022-12-06T04:59:45.937Z,101109.42
2022-12-06T05:00:52.649Z,101113.84
2022-12-06T05:01:56.303Z,101106.75
2022-12-06T05:02:58.462Z,101115.59
2022-12-06T05:04:01.482Z,101113.77
2022-12-06T05:05:05.107Z,101108.42
2022-12-06T05:06:08.985Z,101118.27
2022-12-06T05:07:11.445Z,101115.52
2022-12-06T05:08:13.892Z,101116.38
2022-12-06T05:09:16.415Z,101116.38
2022-12-06T05:10:19.809Z,101117.26
2022-12-06T05:11:22.141Z,101113.62
2022-12-06T05:12:24.419Z,101109.23
2022-12-06T05:13:26.625Z,101111.84
2022-12-06T05:14:29.196Z,101109.16
2022-12-06T05:15:31.516Z,101107.34
2022-12-06T05:16:34.583Z,101106.48
2022-12-06T05:17:36.971Z,101108.20
2022-12-06T05:18:39.260Z,101108.20
2022-12-06T05:19:42.027Z,101100.17
2022-12-06T05:20:45.292Z,101097.50
2022-12-06T05:21:47.949Z,101098.39
2022-12-06T05:22:50.357Z,101101.92
2022-12-06T05:23:54.455Z,101097.45
2022-12-06T05:24:56.667Z,101097.45
2022-12-06T05:27:12.855Z,101102.20
2022-12-06T05:28:15.316Z,101104.52
2022-12-06T05:29:17.598Z,101100.05
2022-12-06T05:30:20.084Z,101100.05
2022-12-06T05:31:22.429Z,101107.12
2022-12-06T05:32:24.706Z,101101.77
2022-12-06T05:33:27.215Z,101099.09
2022-12-06T05:34:30.840Z,101105.33
2022-12-06T05:35:33.987Z,101097.30
2022-12-06T05:36:36.620Z,101100.84
2022-12-06T05:37:38.981Z,101092.81
2022-12-06T05:38:41.744Z,101097.30
2022-12-06T05:39:44.703Z,101099.05
2022-12-06T05:40:47.091Z,101097.30
2022-12-06T05:41:49.778Z,101091.95
2022-12-06T05:42:53.022Z,101094.56
2022-12-06T05:43:56.001Z,101089.20
2022-12-06T05:44:57.986Z,101097.23
2022-12-06T05:46:00.276Z,101097.23
2022-12-06T05:47:02.575Z,101095.41
2022-12-06T05:48:05.575Z,101094.56
2022-12-06T05:49:07.902Z,101098.09
2022-12-06T05:50:10.903Z,101099.91
2022-12-06T05:51:13.096Z,101096.30
2022-12-06T05:52:15.891Z,101099.83
2022-12-06T05:53:18.726Z,101094.48
2022-12-06T05:54:21.676Z,101098.02
2022-12-06T05:55:24.123Z,101097.16
2022-12-06T05:56:27.099Z,101095.34
2022-12-06T05:57:29.691Z,101096.23
2022-12-06T05:58:32.545Z,101092.66
2022-12-06T05:59:39.918Z,101092.66
2022-12-06T06:00:47.593Z,101098.02
2022-12-06T06:01:50.401Z,101097.16
2022-12-06T06:02:52.773Z,101087.31
2022-12-06T06:03:55.104Z,101101.58
2022-12-06T06:04:57.678Z,101096.23
2022-12-06T06:06:00.109Z,101092.66
2022-12-06T06:07:02.457Z,101087.31
2022-12-06T06:08:05.192Z,101091.80
2022-12-06T06:09:07.744Z,101090.87
2022-12-06T06:10:10.803Z,101087.31
2022-12-06T06:11:13.804Z,101086.45
2022-12-06T10:40:04.188Z,100854.84
2022-12-06T10:41:25.238Z,100856.84
2022-12-06T10:42:31.168Z,100856.53
2022-12-06T10:43:56.813Z,100863.14
2022-12-06T10:45:10.100Z,100852.17
2022-12-06T10:47:42.387Z,100846.14
2022-12-06T10:49:11.249Z,100854.13
2022-12-06T10:50:22.089Z,100849.25
2022-12-06T10:51:27.855Z,100844.21
2022-12-06T10:52:39.984Z,100846.45
2022-12-06T10:53:45.410Z,100845.15
2022-12-06T10:56:20.845Z,100841.19
2022-12-06T10:58:46.983Z,100827.95
2022-12-06T11:00:08.044Z,100832.57
2022-12-06T11:02:38.558Z,100836.57
2022-12-06T11:03:49.155Z,100827.89
2022-12-06T11:04:52.638Z,100832.91
2022-12-06T11:05:59.397Z,100827.29
2022-12-06T11:07:15.458Z,100828.84
2022-12-06T11:09:40.464Z,100818.92
2022-12-06T11:10:44.855Z,100822.74
2022-12-06T11:11:48.236Z,100819.08
2022-12-06T11:14:25.092Z,100818.17
2022-12-06T11:15:30.873Z,100815.84
2022-12-06T11:16:44.887Z,100818.30
2022-12-06T11:18:12.823Z,100814.62
2022-12-06T11:19:36.315Z,100822.48
2022-12-06T11:20:41.247Z,100810.72
2022-12-06T11:21:49.935Z,100811.45
2022-12-06T11:24:09.623Z,100797.38
2022-12-06T11:25:18.742Z,100802.06
2022-12-06T11:26:33.407Z,100800.90
2022-12-06T11:27:39.704Z,100784.67
2022-12-06T11:28:44.444Z,100792.38
2022-12-06T11:29:47.805Z,100781.52
2022-12-06T11:32:07.375Z,100782.19
2022-12-06T11:33:10.710Z,100790.56
2022-12-06T11:35:49.856Z,100775.34
2022-12-06T11:36:58.358Z,100771.25
2022-12-06T11:37:59.525Z,100768.41
2022-12-06T11:39:02.238Z,100771.05
2022-12-06T11:41:23.500Z,100764.84
2022-12-06T11:42:26.829Z,100763.47
2022-12-06T11:43:30.472Z,100757.19
2022-12-06T11:45:57.512Z,100757.58
2022-12-06T11:47:01.205Z,100754.67
2022-12-06T11:48:18.858Z,100754.84
2022-12-06T11:49:24.837Z,100761.28
2022-12-06T11:50:28.643Z,100756.02
2022-12-06T11:51:30.808Z,100758.82
2022-12-06T11:52:38.374Z,100758.90
2022-12-06T11:55:08.572Z,100758.13
2022-12-06T11:56:23.034Z,100754.11
2022-12-06T11:57:28.990Z,100746.91
2022-12-06T11:58:36.727Z,100756.55
2022-12-06T11:59:38.864Z,100749.33
2022-12-06T12:02:18.074Z,100745.02
2022-12-06T12:03:25.987Z,100744.63
2022-12-06T12:04:43.177Z,100745.48
2022-12-06T12:05:46.248Z,100732.96
2022-12-06T12:06:54.693Z,100734.78
2022-12-06T12:08:02.508Z,100732.03
2022-12-06T12:09:05.059Z,100726.67
2022-12-06T12:10:23.259Z,100725.74
2022-12-06T12:12:45.074Z,100725.96
2022-12-06T12:13:51.768Z,100718.48
2022-12-06T12:14:56.099Z,100717.64
2022-12-06T12:17:17.463Z,100715.19
2022-12-06T12:19:52.752Z,100703.63
2022-12-06T12:20:56.803Z,100710.39
2022-12-06T12:21:59.742Z,100714.80
2022-12-06T12:23:03.809Z,100704.10
2022-12-06T12:24:08.632Z,100705.84
2022-12-06T12:25:31.428Z,100693.32
2022-12-06T12:27:54.496Z,100696.23
2022-12-06T12:29:09.614Z,100696.71
2022-12-06T12:30:18.927Z,100698.45
2022-12-06T12:31:23.019Z,100698.37
2022-12-06T12:32:25.396Z,100702.69
2022-12-06T12:33:28.390Z,100700.88
2022-12-06T12:34:30.859Z,100704.31
2022-12-06T12:35:34.768Z,100698.03
2022-12-06T12:36:38.558Z,100698.91
2022-12-06T12:37:40.764Z,100695.27
2022-12-06T12:38:57.639Z,100695.27
2022-12-06T12:40:09.037Z,100697.86
2022-12-06T12:41:23.031Z,100698.74
2022-12-06T12:42:30.395Z,100701.42
2022-12-06T12:43:32.821Z,100712.12
2022-12-06T12:44:38.738Z,100704.95
2022-12-06T12:47:19.650Z,100697.24
2022-12-06T12:48:26.456Z,100699.59
2022-12-06T12:50:55.267Z,100702.64
2022-12-06T12:51:57.640Z,100701.42
2022-12-06T12:53:00.947Z,100693.48
2022-12-06T12:54:21.874Z,100702.36
2022-12-06T12:55:26.694Z,100700.62
2022-12-06T12:56:31.214Z,100705.12
2022-12-06T12:57:33.369Z,100697.95
2022-12-06T12:58:36.537Z,100701.59
2022-12-06T12:59:39.980Z,100701.64
2022-12-06T13:00:46.188Z,100701.64
2022-12-06T13:01:58.161Z,100699.85
2022-12-06T13:03:35.046Z,100700.70
2022-12-06T13:05:46.972Z,100692.12
2022-12-06T13:07:02.210Z,100699.85
2022-12-06T13:08:13.069Z,100697.17
2022-12-06T13:10:39.095Z,100689.53
2022-12-06T13:11:46.802Z,100690.09
2022-12-06T13:14:03.855Z,100692.29
2022-12-06T13:15:18.116Z,100698.20
2022-12-06T13:16:26.714Z,100692.84
2022-12-06T13:17:29.988Z,100693.78
2022-12-06T13:18:42.326Z,100693.62
2022-12-06T13:19:59.554Z,100692.84
2022-12-06T13:20:52.139Z,100695.69
2022-12-06T13:21:54.453Z,100701.89
2022-12-06T13:23:01.333Z,100694.89
2022-12-06T13:24:13.740Z,100689.55
2022-12-06T13:25:16.541Z,100697.73
2022-12-06T13:26:28.468Z,100690.65
2022-12-06T13:27:34.044Z,100693.19
2022-12-06T13:28:39.805Z,100689.55
2022-12-06T13:29:55.070Z,100692.22
2022-12-06T13:31:08.399Z,100687.75
2022-12-06T13:33:29.005Z,100686.39
2022-12-06T13:34:39.324Z,100685.08
2022-12-06T13:35:45.179Z,100691.45
2022-12-06T13:36:48.298Z,100687.12
2022-12-06T13:37:54.324Z,100685.38
2022-12-06T13:38:57.947Z,100687.97
2022-12-06T13:40:00.768Z,100682.80
2022-12-06T13:42:24.963Z,100692.84
2022-12-06T13:43:35.073Z,100686.32
2022-12-06T13:46:10.346Z,100683.17
2022-12-06T13:47:31.513Z,100684.70
2022-12-06T13:48:57.742Z,100680.20
2022-12-06T13:50:05.173Z,100682.95
2022-12-06T13:51:12.060Z,100680.53
2022-12-06T13:54:16.178Z,100675.70
2022-12-06T13:55:27.988Z,100683.34
2022-12-06T13:56:35.864Z,100682.49
2022-12-06T13:57:38.585Z,100678.08
2022-12-06T13:58:41.664Z,100673.67
2022-12-06T13:59:45.465Z,100676.34
2022-12-06T14:00:49.778Z,100673.67
2022-12-06T14:01:55.082Z,100671.00
2022-12-06T14:03:19.545Z,100668.27
2022-12-06T14:08:16.127Z,100675.19
2022-12-06T14:09:18.889Z,100675.24
2022-12-06T14:10:22.900Z,100684.23
2022-12-06T14:11:26.514Z,100684.23
2022-12-06T14:12:29.779Z,100683.34
2022-12-06T14:13:31.838Z,100690.43
2022-12-06T14:14:35.245Z,100687.76
2022-12-06T14:15:38.173Z,100681.69
2022-12-06T14:16:47.400Z,100681.69
2022-12-06T14:18:12.590Z,100692.94
2022-12-06T14:18:53.770Z,100679.48
2022-12-06T14:19:56.862Z,100681.30
2022-12-06T14:20:59.727Z,100679.44
2022-12-06T14:22:05.845Z,100674.09
2022-12-06T14:24:40.623Z,100680.41
2022-12-06T14:25:42.764Z,100681.86
2022-12-06T14:26:45.196Z,100680.20
2022-12-06T14:27:50.640Z,100681.14
2022-12-06T14:28:54.776Z,100676.67
2022-12-06T14:30:00.114Z,100677.53
2022-12-06T14:31:06.981Z,100672.19
2022-12-06T14:32:09.189Z,100670.27
2022-12-06T14:33:20.363Z,100680.97
2022-12-06T14:36:00.664Z,100678.45
2022-12-06T14:37:19.158Z,100677.14
2022-12-06T14:38:30.884Z,100676.17
2022-12-06T14:39:34.336Z,100674.30
2022-12-06T18:18:36.412Z,100525.73
2022-12-06T18:19:39.634Z,100522.38
2022-12-06T18:20:42.397Z,100521.84
2022-12-06T18:21:45.175Z,100520.38
2022-12-06T18:22:47.614Z,100517.12
2022-12-06T18:24:19.788Z,100520.92
2022-12-06T18:24:55.184Z,100513.98
2022-12-06T18:26:02.387Z,100519.41
2022-12-06T18:27:05.175Z,100516.10
2022-12-06T18:28:07.933Z,100513.58
2022-12-06T18:30:44.439Z,100506.92
2022-12-06T18:31:47.958Z,100513.03
2022-12-06T18:32:52.044Z,100511.50
2022-12-06T18:33:58.620Z,100507.38
2022-12-06T18:35:01.549Z,100515.66
2022-12-06T18:36:05.873Z,100509.67
2022-12-06T18:37:08.775Z,100511.80
2022-12-06T18:38:14.226Z,100507.73
2022-12-06T18:39:17.739Z,100506.30
2022-12-06T18:40:20.308Z,100509.43
2022-12-06T18:41:22.594Z,100507.25
2022-12-06T18:42:26.210Z,100498.89
2022-12-06T18:43:28.598Z,100502.91
2022-12-06T18:44:30.744Z,100500.73
2022-12-06T18:45:33.348Z,100495.93
2022-12-06T18:46:36.149Z,100499.99
2022-12-06T18:47:38.768Z,100489.92
2022-12-06T18:48:42.463Z,100493.12
2022-12-06T18:49:46.952Z,100495.53
2022-12-06T18:50:49.807Z,100491.65
2022-12-06T18:51:52.012Z,100492.17
2022-12-06T18:52:55.520Z,100485.80
2022-12-06T18:53:59.363Z,100482.00
2022-12-06T18:55:02.928Z,100480.79
2022-12-06T18:56:11.374Z,100477.94
2022-12-06T18:57:14.927Z,100474.17
2022-12-06T18:58:17.623Z,100475.81
2022-12-06T18:59:25.942Z,100475.62
2022-12-06T19:00:26.102Z,100471.92
2022-12-06T19:01:30.925Z,100471.83
2022-12-06T19:02:35.260Z,100477.87
2022-12-06T19:03:37.563Z,100473.28
2022-12-06T19:04:39.889Z,100472.25
2022-12-06T19:06:01.785Z,100471.22
2022-12-06T19:06:46.393Z,100469.30
2022-12-06T19:07:52.095Z,100480.79
2022-12-06T19:08:56.704Z,100470.84
2022-12-06T19:09:59.599Z,100470.78
2022-12-06T19:11:01.981Z,100458.16
2022-12-06T19:12:04.433Z,100460.74
2022-12-06T19:13:06.534Z,100458.91
2022-12-06T19:14:09.290Z,100452.62
2022-12-06T19:15:11.463Z,100453.56
2022-12-06T19:16:15.969Z,100451.77
2022-12-06T19:17:19.360Z,100450.03
2022-12-06T19:18:21.589Z,100447.36
2022-12-06T19:19:24.775Z,100445.62
2022-12-06T19:20:29.345Z,100443.83
2022-12-06T19:21:33.584Z,100447.45
2022-12-06T19:22:36.721Z,100442.19
2022-12-06T19:23:39.471Z,100441.34
2022-12-06T19:24:41.930Z,100435.98
2022-12-06T19:25:44.013Z,100438.73
2022-12-06T19:26:46.418Z,100433.56
2022-12-06T19:27:48.968Z,100430.03
2022-12-06T19:28:52.231Z,100426.57
2022-12-06T19:29:54.866Z,100437.46
2022-12-06T19:32:31.900Z,100429.09
2022-12-06T19:33:35.758Z,100433.33
2022-12-06T19:34:38.245Z,100425.40
2022-12-06T19:35:41.383Z,100419.34
2022-12-06T19:36:44.064Z,100431.18
2022-12-06T19:37:46.621Z,100431.27
2022-12-06T19:38:51.238Z,100427.93
2022-12-06T19:39:54.920Z,100427.05
2022-12-06T19:40:58.375Z,100419.97
2022-12-06T19:42:00.632Z,100424.44
2022-12-06T19:43:03.886Z,100418.42
2022-12-06T19:44:07.282Z,100422.12
2022-12-06T19:45:10.423Z,100418.66
2022-12-06T19:46:16.114Z,100423.34
2022-12-06T19:48:51.403Z,100421.80
2022-12-06T19:49:54.120Z,100418.42
2022-12-06T19:51:02.168Z,100416.78
2022-12-06T19:52:04.340Z,100418.78
2022-12-06T19:53:08.037Z,100412.73
2022-12-06T19:54:11.038Z,100417.31
2022-12-06T19:55:13.733Z,100412.91
2022-12-06T19:56:15.854Z,100413.09
2022-12-06T19:57:19.855Z,100414.13
2022-12-06T19:58:22.056Z,100405.31
2022-12-06T19:59:27.317Z,100403.75
2022-12-06T20:00:30.413Z,100403.75
2022-12-06T20:01:33.616Z,100394.03
2022-12-06T20:02:36.687Z,100402.99
2022-12-06T20:03:40.791Z,100400.50
2022-12-06T20:04:43.895Z,100398.77
2022-12-06T20:05:46.013Z,100397.13
2022-12-06T20:06:49.485Z,100386.52
2022-12-06T20:07:52.316Z,100389.20
2022-12-06T20:08:58.672Z,100386.61
2022-12-06T20:10:02.039Z,100379.97
2022-12-06T20:11:06.358Z,100395.65
2022-12-06T20:12:09.035Z,100387.56
2022-12-06T20:13:11.275Z,100387.72
2022-12-06T20:14:15.274Z,100380.76
2022-12-06T20:15:18.622Z,100384.47
2022-12-06T20:16:20.942Z,100380.14
2022-12-06T20:17:23.228Z,100390.05
2022-12-06T20:18:27.400Z,100384.70
2022-12-06T20:19:31.259Z,100383.94
2022-12-06T20:20:36.136Z,100380.33
2022-12-06T20:21:38.338Z,100381.36
2022-12-06T20:22:41.495Z,100377.80
2022-12-06T20:23:43.660Z,100383.23
2022-12-06T20:24:46.291Z,100376.19
2022-12-06T20:25:48.689Z,100384.20
2022-12-06T20:26:53.420Z,100380.65
2022-12-06T20:27:55.566Z,100380.73
2022-12-06T20:28:58.733Z,100376.25
2022-12-06T20:30:01.374Z,100375.48
2022-12-06T20:31:13.326Z,100380.83
2022-12-06T20:32:16.172Z,100383.50
2022-12-06T20:33:21.045Z,100379.98
2022-12-06T20:34:24.384Z,100385.38
2022-12-06T20:35:27.671Z,100380.13
2022-12-06T20:36:30.488Z,100379.27
2022-12-06T20:37:32.629Z,100361.86
2022-12-06T20:38:34.814Z,100361.86
2022-12-06T20:39:36.906Z,100374.95
2022-12-06T20:40:39.530Z,100377.72
2022-12-06T20:41:42.600Z,100380.39
2022-12-06T20:42:45.211Z,100380.39
2022-12-06T20:43:48.386Z,100380.56
2022-12-06T20:44:51.579Z,100380.56
2022-12-06T20:45:53.972Z,100373.48
2022-12-06T20:46:57.556Z,100377.98
2022-12-06T20:47:59.880Z,100369.97
2022-12-06T20:49:01.992Z,100369.97
2022-12-06T20:50:05.761Z,100378.92
2022-12-06T20:51:09.791Z,100378.07
2022-12-06T20:52:11.942Z,100375.41
2022-12-06T20:53:15.211Z,100376.34
2022-12-06T20:54:19.081Z,100376.34
2022-12-06T20:55:21.196Z,100372.75
2022-12-06T20:56:24.335Z,100376.34
2022-12-06T21:00:25.515Z,100380.85
2022-12-06T21:01:40.415Z,100374.66
2022-12-06T21:02:43.972Z,100379.23
2022-12-06T21:03:50.750Z,100371.28
2022-12-06T21:04:55.159Z,100379.38
2022-12-06T21:07:11.106Z,100373.48
2022-12-06T21:08:13.242Z,100377.59
2022-12-06T21:09:16.073Z,100373.19
2022-12-06T21:10:18.756Z,100369.58
2022-12-06T21:11:23.290Z,100366.03
2022-12-06T21:12:25.894Z,100369.58
2022-12-06T21:13:29.351Z,100361.56
2022-12-06T21:14:31.526Z,100370.43
2022-12-06T21:15:34.730Z,100366.03
2022-12-06T21:16:37.700Z,100366.91
2022-12-06T21:17:41.367Z,100364.23
2022-12-06T21:18:45.049Z,100357.92
2022-12-06T21:19:47.672Z,100352.76
2022-12-06T21:20:50.813Z,100354.67
2022-12-06T21:21:53.167Z,100355.69
2022-12-06T21:22:55.367Z,100360.23
2022-12-06T21:24:00.933Z,100353.28
2022-12-06T21:25:07.404Z,100352.48
2022-12-06T21:26:10.322Z,100342.83
2022-12-06T21:27:27.691Z,100345.59
2022-12-06T21:28:30.554Z,100349.20
2022-12-06T21:29:33.223Z,100338.69
2022-12-06T21:30:35.790Z,100338.77
2022-12-06T21:31:38.454Z,100339.80
2022-12-06T21:32:41.231Z,100339.89
2022-12-06T21:33:43.321Z,100340.91
2022-12-06T21:34:46.861Z,100342.81
2022-12-06T21:35:50.687Z,100338.33
2022-12-06T21:36:52.957Z,100338.33
2022-12-06T21:37:55.073Z,100341.17
2022-12-06T21:38:57.555Z,100335.03
2022-12-06T21:40:00.926Z,100337.70
2022-12-06T21:41:05.352Z,100334.27
2022-12-06T21:42:08.547Z,100329.10
2022-12-06T21:43:10.679Z,100323.77
2022-12-06T21:44:12.687Z,100327.37
2022-12-06T21:45:14.829Z,100316.69
2022-12-06T21:46:22.371Z,100322.03
2022-12-06T21:47:25.696Z,100321.94
2022-12-06T21:48:27.842Z,100312.20
2022-12-06T21:49:30.896Z,100316.61
2022-12-06T21:50:33.728Z,100315.84
2022-12-06T21:51:36.032Z,100314.11
2022-12-06T21:52:38.158Z,100311.52
2022-12-06T21:53:40.772Z,100315.89
2022-12-06T21:54:43.151Z,100318.65
2022-12-06T21:55:45.819Z,100304.54
2022-12-06T21:56:49.057Z,100309.88
2022-12-06T21:57:51.534Z,100309.88
2022-12-06T21:58:53.965Z,100308.14
2022-12-06T21:59:56.088Z,100301.07
2022-12-06T22:02:17.289Z,100291.47
2022-12-06T22:03:23.183Z,100288.52
2022-12-06T22:04:26.031Z,100289.55
2022-12-06T22:05:28.632Z,100285.06
2022-12-06T22:06:31.492Z,100291.36
2022-12-06T22:07:34.993Z,100286.88
2022-12-06T22:08:39.315Z,100288.78
2022-12-06T22:09:42.091Z,100283.36
2022-12-06T22:11:56.858Z,100317.79
2022-12-06T22:13:00.776Z,100301.00
2022-12-06T22:14:02.920Z,100274.55
2022-12-06T22:15:07.139Z,100269.34
2022-12-06T22:16:10.981Z,100270.64
2022-12-06T22:17:14.426Z,100270.64
2022-12-06T22:18:16.570Z,100268.38
